sensor_id;sensor_type;location;lat;lon;timestamp;P1;durP1;ratioP1;P2;durP2;ratioP2
6937;SDS011;40040;42.706;23.372;2022-10-18T00:02:21;16.13;;;9.37;;
6937;SDS011;40040;42.706;23.372;2022-10-18T00:04:49;15.17;;;9.40;;
6937;SDS011;40040;42.706;23.372;2022-10-18T00:07:16;15.05;;;9.48;;
6937;SDS011;40040;42.706;23.372;2022-10-18T00:09:43;15.90;;;9.30;;
6937;SDS011;40040;42.706;23.372;2022-10-18T00:12:10;16.23;;;8.87;;
6937;SDS011;40040;42.706;23.372;2022-10-18T00:14:37;14.18;;;8.63;;
6937;SDS011;40040;42.706;23.372;2022-10-18T00:17:04;12.77;;;8.67;;
6937;SDS011;40040;42.706;23.372;2022-10-18T00:19:32;17.57;;;9.23;;
6937;SDS011;40040;42.706;23.372;2022-10-18T00:22:00;13.57;;;8.80;;
6937;SDS011;40040;42.706;23.372;2022-10-18T00:24:27;16.50;;;9.30;;
6937;SDS011;40040;42.706;23.372;2022-10-18T00:26:55;15.97;;;9.03;;
6937;SDS011;40040;42.706;23.372;2022-10-18T00:29:21;12.60;;;8.20;;
6937;SDS011;40040;42.706;23.372;2022-10-18T00:31:48;18.03;;;9.80;;
6937;SDS011;40040;42.706;23.372;2022-10-18T00:34:15;16.23;;;8.67;;
6937;SDS011;40040;42.706;23.372;2022-10-18T00:36:42;14.23;;;8.13;;
6937;SDS011;40040;42.706;23.372;2022-10-18T00:39:13;14.43;;;8.40;;
6937;SDS011;40040;42.706;23.372;2022-10-18T00:41:41;14.63;;;8.43;;
6937;SDS011;40040;42.706;23.372;2022-10-18T00:47:10;16.43;;;8.97;;
6937;SDS011;40040;42.706;23.372;2022-10-18T00:49:39;18.63;;;8.87;;
6937;SDS011;40040;42.706;23.372;2022-10-18T00:52:10;16.20;;;8.93;;
6937;SDS011;40040;42.706;23.372;2022-10-18T00:54:41;15.53;;;8.60;;
6937;SDS011;40040;42.706;23.372;2022-10-18T00:57:09;13.50;;;8.03;;
6937;SDS011;40040;42.706;23.372;2022-10-18T00:59:38;12.97;;;8.50;;
6937;SDS011;40040;42.706;23.372;2022-10-18T01:02:05;14.47;;;8.40;;
6937;SDS011;40040;42.706;23.372;2022-10-18T01:04:33;16.37;;;8.30;;
6937;SDS011;40040;42.706;23.372;2022-10-18T01:07:02;13.60;;;8.13;;
6937;SDS011;40040;42.706;23.372;2022-10-18T01:09:36;14.47;;;7.67;;
6937;SDS011;40040;42.706;23.372;2022-10-18T01:12:13;14.87;;;7.90;;
6937;SDS011;40040;42.706;23.372;2022-10-18T01:14:48;14.13;;;7.70;;
6937;SDS011;40040;42.706;23.372;2022-10-18T01:17:20;13.53;;;7.67;;
6937;SDS011;40040;42.706;23.372;2022-10-18T01:20:06;11.93;;;7.20;;
6937;SDS011;40040;42.706;23.372;2022-10-18T01:22:53;14.07;;;7.40;;
6937;SDS011;40040;42.706;23.372;2022-10-18T01:25:28;13.20;;;7.63;;
6937;SDS011;40040;42.706;23.372;2022-10-18T01:28:06;11.13;;;6.97;;
6937;SDS011;40040;42.706;23.372;2022-10-18T01:30:45;12.97;;;7.50;;
6937;SDS011;40040;42.706;23.372;2022-10-18T01:33:21;13.70;;;7.23;;
6937;SDS011;40040;42.706;23.372;2022-10-18T01:35:56;13.87;;;7.43;;
6937;SDS011;40040;42.706;23.372;2022-10-18T01:38:28;11.63;;;7.00;;
6937;SDS011;40040;42.706;23.372;2022-10-18T01:40:58;11.40;;;7.70;;
6937;SDS011;40040;42.706;23.372;2022-10-18T01:43:26;16.00;;;8.23;;
6937;SDS011;40040;42.706;23.372;2022-10-18T01:45:57;12.63;;;7.40;;
6937;SDS011;40040;42.706;23.372;2022-10-18T01:48:25;13.53;;;7.50;;
6937;SDS011;40040;42.706;23.372;2022-10-18T01:50:53;13.80;;;7.27;;
6937;SDS011;40040;42.706;23.372;2022-10-18T01:53:23;13.40;;;7.33;;
6937;SDS011;40040;42.706;23.372;2022-10-18T01:56:04;14.30;;;7.80;;
6937;SDS011;40040;42.706;23.372;2022-10-18T01:59:00;11.63;;;7.37;;
6937;SDS011;40040;42.706;23.372;2022-10-18T02:01:38;12.20;;;7.37;;
6937;SDS011;40040;42.706;23.372;2022-10-18T02:04:14;13.67;;;7.53;;
6937;SDS011;40040;42.706;23.372;2022-10-18T02:06:50;13.53;;;7.83;;
6937;SDS011;40040;42.706;23.372;2022-10-18T02:09:22;16.93;;;7.97;;
6937;SDS011;40040;42.706;23.372;2022-10-18T02:11:59;15.13;;;7.50;;
6937;SDS011;40040;42.706;23.372;2022-10-18T02:14:28;14.07;;;7.53;;
6937;SDS011;40040;42.706;23.372;2022-10-18T02:16:57;13.80;;;7.43;;
6937;SDS011;40040;42.706;23.372;2022-10-18T02:19:29;12.63;;;7.43;;
6937;SDS011;40040;42.706;23.372;2022-10-18T02:21:59;12.47;;;7.37;;
6937;SDS011;40040;42.706;23.372;2022-10-18T02:24:28;9.37;;;6.40;;
6937;SDS011;40040;42.706;23.372;2022-10-18T02:27:00;14.23;;;6.70;;
6937;SDS011;40040;42.706;23.372;2022-10-18T02:29:27;11.70;;;6.60;;
6937;SDS011;40040;42.706;23.372;2022-10-18T02:31:55;9.10;;;5.87;;
6937;SDS011;40040;42.706;23.372;2022-10-18T02:34:31;11.63;;;6.77;;
6937;SDS011;40040;42.706;23.372;2022-10-18T02:37:03;11.83;;;8.17;;
6937;SDS011;40040;42.706;23.372;2022-10-18T02:39:31;8.77;;;6.00;;
6937;SDS011;40040;42.706;23.372;2022-10-18T02:42:01;7.60;;;5.57;;
6937;SDS011;40040;42.706;23.372;2022-10-18T02:44:31;11.50;;;5.77;;
6937;SDS011;40040;42.706;23.372;2022-10-18T02:46:59;9.40;;;5.37;;
6937;SDS011;40040;42.706;23.372;2022-10-18T02:49:26;7.30;;;5.63;;
6937;SDS011;40040;42.706;23.372;2022-10-18T02:51:53;11.90;;;6.30;;
6937;SDS011;40040;42.706;23.372;2022-10-18T02:54:20;12.80;;;6.17;;
6937;SDS011;40040;42.706;23.372;2022-10-18T02:56:47;9.60;;;5.73;;
6937;SDS011;40040;42.706;23.372;2022-10-18T02:59:14;10.67;;;6.67;;
6937;SDS011;40040;42.706;23.372;2022-10-18T03:01:41;9.50;;;6.67;;
6937;SDS011;40040;42.706;23.372;2022-10-18T03:04:10;8.57;;;6.23;;
6937;SDS011;40040;42.706;23.372;2022-10-18T03:06:37;10.53;;;6.87;;
6937;SDS011;40040;42.706;23.372;2022-10-18T03:09:04;10.73;;;6.87;;
6937;SDS011;40040;42.706;23.372;2022-10-18T03:11:32;12.30;;;7.60;;
6937;SDS011;40040;42.706;23.372;2022-10-18T03:13:59;10.83;;;6.90;;
6937;SDS011;40040;42.706;23.372;2022-10-18T03:16:26;12.03;;;7.77;;
6937;SDS011;40040;42.706;23.372;2022-10-18T03:18:52;14.37;;;8.07;;
6937;SDS011;40040;42.706;23.372;2022-10-18T03:21:21;15.03;;;8.23;;
6937;SDS011;40040;42.706;23.372;2022-10-18T03:23:48;14.00;;;8.33;;
6937;SDS011;40040;42.706;23.372;2022-10-18T03:26:14;11.57;;;7.17;;
6937;SDS011;40040;42.706;23.372;2022-10-18T03:28:41;14.00;;;8.00;;
6937;SDS011;40040;42.706;23.372;2022-10-18T03:31:08;13.60;;;8.00;;
6937;SDS011;40040;42.706;23.372;2022-10-18T03:33:35;15.27;;;9.07;;
6937;SDS011;40040;42.706;23.372;2022-10-18T03:36:02;14.13;;;8.43;;
6937;SDS011;40040;42.706;23.372;2022-10-18T03:38:30;13.03;;;8.07;;
6937;SDS011;40040;42.706;23.372;2022-10-18T03:40:57;18.93;;;9.40;;
6937;SDS011;40040;42.706;23.372;2022-10-18T03:43:24;17.07;;;8.27;;
6937;SDS011;40040;42.706;23.372;2022-10-18T03:45:51;14.33;;;8.30;;
6937;SDS011;40040;42.706;23.372;2022-10-18T03:48:18;21.67;;;9.60;;
6937;SDS011;40040;42.706;23.372;2022-10-18T03:50:44;17.13;;;9.73;;
6937;SDS011;40040;42.706;23.372;2022-10-18T03:53:12;19.03;;;10.30;;
6937;SDS011;40040;42.706;23.372;2022-10-18T03:55:40;17.47;;;10.37;;
6937;SDS011;40040;42.706;23.372;2022-10-18T03:58:07;16.60;;;9.57;;
6937;SDS011;40040;42.706;23.372;2022-10-18T04:00:34;19.10;;;9.93;;
6937;SDS011;40040;42.706;23.372;2022-10-18T04:03:01;33.13;;;15.73;;
6937;SDS011;40040;42.706;23.372;2022-10-18T04:05:28;31.73;;;15.07;;
6937;SDS011;40040;42.706;23.372;2022-10-18T04:07:55;28.27;;;13.80;;
6937;SDS011;40040;42.706;23.372;2022-10-18T04:10:22;25.57;;;12.13;;
6937;SDS011;40040;42.706;23.372;2022-10-18T04:12:50;22.63;;;10.00;;
6937;SDS011;40040;42.706;23.372;2022-10-18T04:15:17;19.43;;;9.77;;
6937;SDS011;40040;42.706;23.372;2022-10-18T04:17:44;14.90;;;8.90;;
6937;SDS011;40040;42.706;23.372;2022-10-18T04:20:12;15.07;;;9.27;;
6937;SDS011;40040;42.706;23.372;2022-10-18T04:22:39;12.77;;;8.00;;
6937;SDS011;40040;42.706;23.372;2022-10-18T04:25:06;12.87;;;7.87;;
6937;SDS011;40040;42.706;23.372;2022-10-18T04:27:33;13.30;;;7.63;;
6937;SDS011;40040;42.706;23.372;2022-10-18T04:30:02;16.10;;;9.03;;
6937;SDS011;40040;42.706;23.372;2022-10-18T04:32:29;15.37;;;8.70;;
6937;SDS011;40040;42.706;23.372;2022-10-18T04:34:56;16.43;;;7.17;;
6937;SDS011;40040;42.706;23.372;2022-10-18T04:37:24;14.00;;;7.03;;
6937;SDS011;40040;42.706;23.372;2022-10-18T04:39:51;11.13;;;7.13;;
6937;SDS011;40040;42.706;23.372;2022-10-18T04:42:18;12.27;;;6.67;;
6937;SDS011;40040;42.706;23.372;2022-10-18T04:44:46;13.80;;;6.40;;
6937;SDS011;40040;42.706;23.372;2022-10-18T04:47:15;8.67;;;6.37;;
6937;SDS011;40040;42.706;23.372;2022-10-18T04:49:43;10.17;;;6.37;;
6937;SDS011;40040;42.706;23.372;2022-10-18T04:52:10;12.50;;;6.17;;
6937;SDS011;40040;42.706;23.372;2022-10-18T04:54:40;12.33;;;6.97;;
6937;SDS011;40040;42.706;23.372;2022-10-18T04:57:14;20.03;;;10.80;;
6937;SDS011;40040;42.706;23.372;2022-10-18T04:59:47;20.67;;;10.87;;
6937;SDS011;40040;42.706;23.372;2022-10-18T05:02:19;15.43;;;7.97;;
6937;SDS011;40040;42.706;23.372;2022-10-18T05:04:46;17.47;;;8.63;;
6937;SDS011;40040;42.706;23.372;2022-10-18T05:07:14;14.27;;;9.10;;
6937;SDS011;40040;42.706;23.372;2022-10-18T05:09:41;43.13;;;20.13;;
6937;SDS011;40040;42.706;23.372;2022-10-18T05:12:08;90.77;;;40.53;;
6937;SDS011;40040;42.706;23.372;2022-10-18T05:14:36;31.40;;;15.47;;
6937;SDS011;40040;42.706;23.372;2022-10-18T05:17:03;19.87;;;10.47;;
6937;SDS011;40040;42.706;23.372;2022-10-18T05:19:32;37.37;;;17.93;;
6937;SDS011;40040;42.706;23.372;2022-10-18T05:21:59;39.80;;;22.50;;
6937;SDS011;40040;42.706;23.372;2022-10-18T05:24:27;26.57;;;13.07;;
6937;SDS011;40040;42.706;23.372;2022-10-18T05:26:55;40.07;;;21.67;;
6937;SDS011;40040;42.706;23.372;2022-10-18T05:29:22;46.20;;;24.00;;
6937;SDS011;40040;42.706;23.372;2022-10-18T05:31:50;35.73;;;19.53;;
6937;SDS011;40040;42.706;23.372;2022-10-18T05:34:17;18.67;;;9.03;;
6937;SDS011;40040;42.706;23.372;2022-10-18T05:36:47;20.27;;;10.17;;
6937;SDS011;40040;42.706;23.372;2022-10-18T05:39:14;21.37;;;10.47;;
6937;SDS011;40040;42.706;23.372;2022-10-18T05:41:41;15.03;;;9.27;;
6937;SDS011;40040;42.706;23.372;2022-10-18T05:44:08;10.57;;;7.00;;
6937;SDS011;40040;42.706;23.372;2022-10-18T05:46:35;12.40;;;7.90;;
6937;SDS011;40040;42.706;23.372;2022-10-18T05:49:02;17.47;;;10.93;;
6937;SDS011;40040;42.706;23.372;2022-10-18T05:51:29;15.80;;;7.60;;
6937;SDS011;40040;42.706;23.372;2022-10-18T05:53:57;11.13;;;6.97;;
6937;SDS011;40040;42.706;23.372;2022-10-18T05:56:25;14.47;;;7.40;;
6937;SDS011;40040;42.706;23.372;2022-10-18T05:58:52;13.87;;;7.40;;
6937;SDS011;40040;42.706;23.372;2022-10-18T06:01:19;13.77;;;7.77;;
6937;SDS011;40040;42.706;23.372;2022-10-18T06:03:46;21.47;;;7.83;;
6937;SDS011;40040;42.706;23.372;2022-10-18T06:06:13;12.37;;;7.47;;
6937;SDS011;40040;42.706;23.372;2022-10-18T06:08:41;15.33;;;8.23;;
6937;SDS011;40040;42.706;23.372;2022-10-18T06:11:11;14.43;;;8.03;;
6937;SDS011;40040;42.706;23.372;2022-10-18T06:13:39;10.57;;;7.47;;
6937;SDS011;40040;42.706;23.372;2022-10-18T06:16:07;15.33;;;9.40;;
6937;SDS011;40040;42.706;23.372;2022-10-18T06:18:35;19.50;;;8.33;;
6937;SDS011;40040;42.706;23.372;2022-10-18T06:21:02;13.47;;;8.67;;
6937;SDS011;40040;42.706;23.372;2022-10-18T06:23:29;16.37;;;8.60;;
6937;SDS011;40040;42.706;23.372;2022-10-18T06:25:59;14.47;;;8.43;;
6937;SDS011;40040;42.706;23.372;2022-10-18T06:28:28;30.80;;;14.33;;
6937;SDS011;40040;42.706;23.372;2022-10-18T06:30:55;45.30;;;24.90;;
6937;SDS011;40040;42.706;23.372;2022-10-18T06:33:23;23.07;;;12.83;;
6937;SDS011;40040;42.706;23.372;2022-10-18T06:35:54;23.13;;;12.23;;
6937;SDS011;40040;42.706;23.372;2022-10-18T06:38:23;20.20;;;11.53;;
6937;SDS011;40040;42.706;23.372;2022-10-18T06:40:50;24.10;;;12.20;;
6937;SDS011;40040;42.706;23.372;2022-10-18T06:43:17;29.40;;;15.27;;
6937;SDS011;40040;42.706;23.372;2022-10-18T06:45:45;26.33;;;13.40;;
6937;SDS011;40040;42.706;23.372;2022-10-18T06:48:13;27.00;;;13.93;;
6937;SDS011;40040;42.706;23.372;2022-10-18T06:50:40;23.17;;;12.97;;
6937;SDS011;40040;42.706;23.372;2022-10-18T06:53:07;24.37;;;11.80;;
6937;SDS011;40040;42.706;23.372;2022-10-18T06:55:34;19.42;;;11.38;;
6937;SDS011;40040;42.706;23.372;2022-10-18T06:58:01;21.07;;;11.27;;
6937;SDS011;40040;42.706;23.372;2022-10-18T07:00:28;23.50;;;11.32;;
6937;SDS011;40040;42.706;23.372;2022-10-18T07:02:56;25.05;;;12.25;;
6937;SDS011;40040;42.706;23.372;2022-10-18T07:05:23;21.97;;;15.00;;
6937;SDS011;40040;42.706;23.372;2022-10-18T07:07:50;20.60;;;12.70;;
6937;SDS011;40040;42.706;23.372;2022-10-18T07:10:17;26.30;;;11.07;;
6937;SDS011;40040;42.706;23.372;2022-10-18T07:12:44;18.00;;;10.95;;
6937;SDS011;40040;42.706;23.372;2022-10-18T07:15:11;17.05;;;11.13;;
6937;SDS011;40040;42.706;23.372;2022-10-18T07:17:38;16.93;;;10.23;;
6937;SDS011;40040;42.706;23.372;2022-10-18T07:20:07;14.23;;;9.07;;
6937;SDS011;40040;42.706;23.372;2022-10-18T07:22:35;20.63;;;11.43;;
6937;SDS011;40040;42.706;23.372;2022-10-18T07:25:04;19.02;;;10.90;;
6937;SDS011;40040;42.706;23.372;2022-10-18T07:27:34;20.23;;;10.25;;
6937;SDS011;40040;42.706;23.372;2022-10-18T07:30:03;18.08;;;10.40;;
6937;SDS011;40040;42.706;23.372;2022-10-18T07:32:30;16.05;;;10.15;;
6937;SDS011;40040;42.706;23.372;2022-10-18T07:34:57;16.10;;;9.50;;
6937;SDS011;40040;42.706;23.372;2022-10-18T07:37:26;19.00;;;9.48;;
6937;SDS011;40040;42.706;23.372;2022-10-18T07:39:54;15.40;;;9.43;;
6937;SDS011;40040;42.706;23.372;2022-10-18T07:42:21;12.30;;;8.80;;
6937;SDS011;40040;42.706;23.372;2022-10-18T07:44:48;14.68;;;9.15;;
6937;SDS011;40040;42.706;23.372;2022-10-18T07:47:15;14.68;;;9.88;;
6937;SDS011;40040;42.706;23.372;2022-10-18T07:49:42;15.20;;;9.05;;
6937;SDS011;40040;42.706;23.372;2022-10-18T07:52:09;12.23;;;8.60;;
6937;SDS011;40040;42.706;23.372;2022-10-18T07:54:38;15.80;;;8.73;;
6937;SDS011;40040;42.706;23.372;2022-10-18T07:57:05;14.48;;;9.27;;
6937;SDS011;40040;42.706;23.372;2022-10-18T07:59:32;13.43;;;8.88;;
6937;SDS011;40040;42.706;23.372;2022-10-18T08:01:59;17.23;;;9.65;;
6937;SDS011;40040;42.706;23.372;2022-10-18T08:04:26;16.42;;;10.40;;
6937;SDS011;40040;42.706;23.372;2022-10-18T08:06:55;19.90;;;11.20;;
6937;SDS011;40040;42.706;23.372;2022-10-18T08:09:21;17.85;;;10.80;;
6937;SDS011;40040;42.706;23.372;2022-10-18T08:11:50;17.90;;;10.45;;
6937;SDS011;40040;42.706;23.372;2022-10-18T08:14:17;18.80;;;10.40;;
6937;SDS011;40040;42.706;23.372;2022-10-18T08:16:44;17.42;;;9.95;;
6937;SDS011;40040;42.706;23.372;2022-10-18T08:19:11;15.32;;;9.95;;
6937;SDS011;40040;42.706;23.372;2022-10-18T08:21:38;18.83;;;10.20;;
6937;SDS011;40040;42.706;23.372;2022-10-18T08:24:05;16.48;;;10.48;;
6937;SDS011;40040;42.706;23.372;2022-10-18T08:26:32;17.15;;;10.43;;
6937;SDS011;40040;42.706;23.372;2022-10-18T08:29:01;23.52;;;11.02;;
6937;SDS011;40040;42.706;23.372;2022-10-18T08:31:28;21.67;;;11.15;;
6937;SDS011;40040;42.706;23.372;2022-10-18T08:33:55;19.10;;;9.82;;
6937;SDS011;40040;42.706;23.372;2022-10-18T08:36:22;14.68;;;9.75;;
6937;SDS011;40040;42.706;23.372;2022-10-18T08:38:49;18.48;;;10.23;;
6937;SDS011;40040;42.706;23.372;2022-10-18T08:44:09;14.88;;;9.90;;
6937;SDS011;40040;42.706;23.372;2022-10-18T08:46:43;15.13;;;9.50;;
6937;SDS011;40040;42.706;23.372;2022-10-18T08:49:16;14.27;;;9.85;;
6937;SDS011;40040;42.706;23.372;2022-10-18T08:51:48;13.57;;;9.57;;
6937;SDS011;40040;42.706;23.372;2022-10-18T08:54:19;19.63;;;9.05;;
6937;SDS011;40040;42.706;23.372;2022-10-18T08:56:55;13.90;;;8.70;;
6937;SDS011;40040;42.706;23.372;2022-10-18T08:59:26;12.77;;;9.23;;
6937;SDS011;40040;42.706;23.372;2022-10-18T09:02:01;11.90;;;9.43;;
6937;SDS011;40040;42.706;23.372;2022-10-18T09:04:43;13.73;;;9.25;;
6937;SDS011;40040;42.706;23.372;2022-10-18T09:07:22;11.65;;;8.35;;
6937;SDS011;40040;42.706;23.372;2022-10-18T09:10:02;46.47;;;21.08;;
6937;SDS011;40040;42.706;23.372;2022-10-18T09:12:38;13.73;;;9.18;;
6937;SDS011;40040;42.706;23.372;2022-10-18T09:15:21;13.27;;;8.57;;
6937;SDS011;40040;42.706;23.372;2022-10-18T09:18:04;16.90;;;9.23;;
6937;SDS011;40040;42.706;23.372;2022-10-18T09:20:44;17.98;;;8.63;;
6937;SDS011;40040;42.706;23.372;2022-10-18T09:23:29;13.65;;;8.88;;
6937;SDS011;40040;42.706;23.372;2022-10-18T09:26:09;27.92;;;15.77;;
6937;SDS011;40040;42.706;23.372;2022-10-18T09:28:42;11.48;;;8.13;;
6937;SDS011;40040;42.706;23.372;2022-10-18T09:31:21;8.88;;;7.22;;
6937;SDS011;40040;42.706;23.372;2022-10-18T09:33:54;12.23;;;8.00;;
6937;SDS011;40040;42.706;23.372;2022-10-18T09:36:26;9.75;;;7.20;;
6937;SDS011;40040;42.706;23.372;2022-10-18T09:39:02;7.50;;;6.28;;
6937;SDS011;40040;42.706;23.372;2022-10-18T09:41:32;10.35;;;7.25;;
6937;SDS011;40040;42.706;23.372;2022-10-18T09:44:05;15.88;;;8.45;;
6937;SDS011;40040;42.706;23.372;2022-10-18T09:46:39;10.65;;;7.40;;
6937;SDS011;40040;42.706;23.372;2022-10-18T09:49:12;7.60;;;6.00;;
6937;SDS011;40040;42.706;23.372;2022-10-18T09:51:43;10.07;;;7.28;;
6937;SDS011;40040;42.706;23.372;2022-10-18T09:54:23;13.88;;;6.20;;
6937;SDS011;40040;42.706;23.372;2022-10-18T09:57:01;7.30;;;5.25;;
6937;SDS011;40040;42.706;23.372;2022-10-18T09:59:31;7.90;;;5.30;;
6937;SDS011;40040;42.706;23.372;2022-10-18T10:02:04;6.38;;;4.90;;
6937;SDS011;40040;42.706;23.372;2022-10-18T10:04:32;7.80;;;4.70;;
6937;SDS011;40040;42.706;23.372;2022-10-18T10:07:00;5.88;;;4.32;;
6937;SDS011;40040;42.706;23.372;2022-10-18T10:09:35;5.22;;;4.72;;
6937;SDS011;40040;42.706;23.372;2022-10-18T10:12:07;5.20;;;4.32;;
6937;SDS011;40040;42.706;23.372;2022-10-18T10:14:53;5.78;;;5.13;;
6937;SDS011;40040;42.706;23.372;2022-10-18T10:17:33;6.78;;;4.00;;
6937;SDS011;40040;42.706;23.372;2022-10-18T10:20:01;5.53;;;4.45;;
6937;SDS011;40040;42.706;23.372;2022-10-18T10:22:32;4.10;;;3.65;;
6937;SDS011;40040;42.706;23.372;2022-10-18T10:25:01;7.05;;;4.80;;
6937;SDS011;40040;42.706;23.372;2022-10-18T10:27:30;4.00;;;3.65;;
6937;SDS011;40040;42.706;23.372;2022-10-18T10:29:59;4.30;;;3.90;;
6937;SDS011;40040;42.706;23.372;2022-10-18T10:32:29;5.85;;;4.05;;
6937;SDS011;40040;42.706;23.372;2022-10-18T10:35:00;4.68;;;3.80;;
6937;SDS011;40040;42.706;23.372;2022-10-18T10:37:29;2.92;;;2.72;;
6937;SDS011;40040;42.706;23.372;2022-10-18T10:40:05;3.35;;;3.10;;
6937;SDS011;40040;42.706;23.372;2022-10-18T10:45:54;7.68;;;3.17;;
6937;SDS011;40040;42.706;23.372;2022-10-18T10:48:23;7.05;;;3.35;;
6937;SDS011;40040;42.706;23.372;2022-10-18T10:50:54;3.22;;;2.92;;
6937;SDS011;40040;42.706;23.372;2022-10-18T10:53:38;5.47;;;4.15;;
6937;SDS011;40040;42.706;23.372;2022-10-18T10:56:19;2.90;;;2.70;;
6937;SDS011;40040;42.706;23.372;2022-10-18T10:58:49;5.25;;;4.00;;
6937;SDS011;40040;42.706;23.372;2022-10-18T11:01:25;2.53;;;2.42;;
6937;SDS011;40040;42.706;23.372;2022-10-18T11:03:56;2.60;;;2.50;;
6937;SDS011;40040;42.706;23.372;2022-10-18T11:06:31;3.50;;;3.30;;
6937;SDS011;40040;42.706;23.372;2022-10-18T11:09:23;2.90;;;2.70;;
6937;SDS011;40040;42.706;23.372;2022-10-18T11:12:00;4.30;;;3.63;;
6937;SDS011;40040;42.706;23.372;2022-10-18T11:14:33;2.97;;;2.60;;
6937;SDS011;40040;42.706;23.372;2022-10-18T11:17:10;5.38;;;3.03;;
6937;SDS011;40040;42.706;23.372;2022-10-18T11:19:45;2.55;;;2.28;;
6937;SDS011;40040;42.706;23.372;2022-10-18T11:22:24;2.33;;;2.22;;
6937;SDS011;40040;42.706;23.372;2022-10-18T11:24:54;2.50;;;2.40;;
6937;SDS011;40040;42.706;23.372;2022-10-18T11:27:23;4.00;;;3.60;;
6937;SDS011;40040;42.706;23.372;2022-10-18T11:29:57;9.63;;;6.80;;
6937;SDS011;40040;42.706;23.372;2022-10-18T11:32:41;5.75;;;4.35;;
6937;SDS011;40040;42.706;23.372;2022-10-18T11:35:21;22.88;;;13.98;;
6937;SDS011;40040;42.706;23.372;2022-10-18T11:38:02;3.45;;;3.08;;
6937;SDS011;40040;42.706;23.372;2022-10-18T11:40:44;2.83;;;2.50;;
6937;SDS011;40040;42.706;23.372;2022-10-18T11:43:22;2.80;;;2.65;;
6937;SDS011;40040;42.706;23.372;2022-10-18T11:45:56;2.42;;;2.25;;
6937;SDS011;40040;42.706;23.372;2022-10-18T11:48:38;6.30;;;4.10;;
6937;SDS011;40040;42.706;23.372;2022-10-18T11:51:22;2.33;;;2.22;;
6937;SDS011;40040;42.706;23.372;2022-10-18T11:54:01;8.75;;;5.72;;
6937;SDS011;40040;42.706;23.372;2022-10-18T11:56:44;2.72;;;2.53;;
6937;SDS011;40040;42.706;23.372;2022-10-18T11:59:22;2.55;;;2.45;;
6937;SDS011;40040;42.706;23.372;2022-10-18T12:01:58;4.13;;;2.47;;
6937;SDS011;40040;42.706;23.372;2022-10-18T12:04:40;3.35;;;2.97;;
6937;SDS011;40040;42.706;23.372;2022-10-18T12:07:12;15.18;;;10.93;;
6937;SDS011;40040;42.706;23.372;2022-10-18T12:09:45;3.85;;;2.92;;
6937;SDS011;40040;42.706;23.372;2022-10-18T12:12:15;4.10;;;3.47;;
6937;SDS011;40040;42.706;23.372;2022-10-18T12:14:47;3.65;;;3.35;;
6937;SDS011;40040;42.706;23.372;2022-10-18T12:17:18;11.90;;;8.70;;
6937;SDS011;40040;42.706;23.372;2022-10-18T12:19:50;3.45;;;3.20;;
6937;SDS011;40040;42.706;23.372;2022-10-18T12:22:22;5.88;;;5.35;;
6937;SDS011;40040;42.706;23.372;2022-10-18T12:24:55;2.78;;;2.58;;
6937;SDS011;40040;42.706;23.372;2022-10-18T12:27:25;3.97;;;3.63;;
6937;SDS011;40040;42.706;23.372;2022-10-18T12:30:00;3.00;;;2.90;;
6937;SDS011;40040;42.706;23.372;2022-10-18T12:32:33;2.33;;;2.10;;
6937;SDS011;40040;42.706;23.372;2022-10-18T12:35:03;3.15;;;2.90;;
6937;SDS011;40040;42.706;23.372;2022-10-18T12:37:40;3.45;;;3.13;;
6937;SDS011;40040;42.706;23.372;2022-10-18T12:40:23;2.50;;;2.40;;
6937;SDS011;40040;42.706;23.372;2022-10-18T12:42:58;6.68;;;5.07;;
6937;SDS011;40040;42.706;23.372;2022-10-18T12:45:26;1.65;;;1.58;;
6937;SDS011;40040;42.706;23.372;2022-10-18T12:47:59;2.05;;;1.50;;
6937;SDS011;40040;42.706;23.372;2022-10-18T12:50:34;1.50;;;1.40;;
6937;SDS011;40040;42.706;23.372;2022-10-18T12:53:11;1.55;;;1.55;;
6937;SDS011;40040;42.706;23.372;2022-10-18T12:55:45;5.38;;;5.05;;
6937;SDS011;40040;42.706;23.372;2022-10-18T12:58:23;1.70;;;1.60;;
6937;SDS011;40040;42.706;23.372;2022-10-18T13:00:56;2.75;;;1.60;;
6937;SDS011;40040;42.706;23.372;2022-10-18T13:06:21;2.20;;;2.10;;
6937;SDS011;40040;42.706;23.372;2022-10-18T13:11:42;1.60;;;1.50;;
6937;SDS011;40040;42.706;23.372;2022-10-18T13:14:18;1.65;;;1.55;;
6937;SDS011;40040;42.706;23.372;2022-10-18T13:17:13;1.70;;;1.52;;
6937;SDS011;40040;42.706;23.372;2022-10-18T13:19:53;3.92;;;1.50;;
6937;SDS011;40040;42.706;23.372;2022-10-18T13:22:43;10.63;;;5.97;;
6937;SDS011;40040;42.706;23.372;2022-10-18T13:25:24;5.35;;;3.35;;
6937;SDS011;40040;42.706;23.372;2022-10-18T13:27:56;1.92;;;1.83;;
6937;SDS011;40040;42.706;23.372;2022-10-18T13:30:32;2.05;;;1.92;;
6937;SDS011;40040;42.706;23.372;2022-10-18T13:36:00;2.80;;;2.70;;
6937;SDS011;40040;42.706;23.372;2022-10-18T13:41:26;2.95;;;2.78;;
6937;SDS011;40040;42.706;23.372;2022-10-18T13:44:07;2.03;;;1.92;;
6937;SDS011;40040;42.706;23.372;2022-10-18T13:52:57;3.67;;;3.45;;
6937;SDS011;40040;42.706;23.372;2022-10-18T13:56:02;2.35;;;2.25;;
6937;SDS011;40040;42.706;23.372;2022-10-18T13:58:42;2.38;;;2.22;;
6937;SDS011;40040;42.706;23.372;2022-10-18T14:01:20;2.08;;;1.80;;
6937;SDS011;40040;42.706;23.372;2022-10-18T14:04:05;1.95;;;1.85;;
6937;SDS011;40040;42.706;23.372;2022-10-18T14:06:59;2.40;;;2.30;;
6937;SDS011;40040;42.706;23.372;2022-10-18T14:09:33;2.03;;;1.95;;
6937;SDS011;40040;42.706;23.372;2022-10-18T14:12:10;2.55;;;2.45;;
6937;SDS011;40040;42.706;23.372;2022-10-18T14:14:46;2.45;;;2.35;;
6937;SDS011;40040;42.706;23.372;2022-10-18T14:17:21;2.45;;;2.35;;
6937;SDS011;40040;42.706;23.372;2022-10-18T14:19:55;2.10;;;2.00;;
6937;SDS011;40040;42.706;23.372;2022-10-18T14:22:26;2.08;;;1.90;;
6937;SDS011;40040;42.706;23.372;2022-10-18T14:24:59;4.45;;;3.00;;
6937;SDS011;40040;42.706;23.372;2022-10-18T14:27:27;3.70;;;2.40;;
6937;SDS011;40040;42.706;23.372;2022-10-18T14:30:07;2.25;;;2.15;;
6937;SDS011;40040;42.706;23.372;2022-10-18T14:32:40;2.38;;;2.20;;
6937;SDS011;40040;42.706;23.372;2022-10-18T14:35:15;2.35;;;2.25;;
6937;SDS011;40040;42.706;23.372;2022-10-18T14:37:44;2.80;;;2.70;;
6937;SDS011;40040;42.706;23.372;2022-10-18T14:40:32;2.85;;;2.65;;
6937;SDS011;40040;42.706;23.372;2022-10-18T14:43:05;3.28;;;3.08;;
6937;SDS011;40040;42.706;23.372;2022-10-18T14:45:37;3.88;;;2.53;;
6937;SDS011;40040;42.706;23.372;2022-10-18T14:48:13;2.80;;;2.60;;
6937;SDS011;40040;42.706;23.372;2022-10-18T14:50:43;4.95;;;3.53;;
6937;SDS011;40040;42.706;23.372;2022-10-18T14:53:15;3.00;;;2.72;;
6937;SDS011;40040;42.706;23.372;2022-10-18T14:55:51;3.17;;;2.95;;
6937;SDS011;40040;42.706;23.372;2022-10-18T14:58:20;2.80;;;2.70;;
6937;SDS011;40040;42.706;23.372;2022-10-18T15:00:48;3.08;;;2.88;;
6937;SDS011;40040;42.706;23.372;2022-10-18T15:03:17;3.00;;;2.80;;
6937;SDS011;40040;42.706;23.372;2022-10-18T15:05:54;3.00;;;2.55;;
6937;SDS011;40040;42.706;23.372;2022-10-18T15:08:34;20.55;;;11.00;;
6937;SDS011;40040;42.706;23.372;2022-10-18T15:11:03;16.90;;;9.18;;
6937;SDS011;40040;42.706;23.372;2022-10-18T15:13:33;5.88;;;4.57;;
6937;SDS011;40040;42.706;23.372;2022-10-18T15:16:01;3.92;;;3.50;;
6937;SDS011;40040;42.706;23.372;2022-10-18T15:18:30;4.78;;;3.22;;
6937;SDS011;40040;42.706;23.372;2022-10-18T15:21:07;9.23;;;3.80;;
6937;SDS011;40040;42.706;23.372;2022-10-18T15:23:35;4.97;;;2.70;;
6937;SDS011;40040;42.706;23.372;2022-10-18T15:26:02;3.67;;;2.72;;
6937;SDS011;40040;42.706;23.372;2022-10-18T15:28:33;4.40;;;3.20;;